createdAt,value
2022-12-06T00:02:10.583Z,95587.69
2022-12-06T00:04:37.161Z,95587.41
2022-12-06T00:07:03.871Z,95589.81
2022-12-06T00:09:32.026Z,95590.88
2022-12-06T00:11:58.638Z,95592.78
2022-12-06T00:14:26.212Z,95591.72
2022-12-06T00:16:52.798Z,95582.56
2022-12-06T00:19:21.572Z,95594.94
2022-12-06T00:21:48.404Z,95588.50
2022-12-06T00:24:17.500Z,95586.88
2022-12-06T00:26:46.444Z,95589.56
2022-12-06T00:29:19.089Z,95587.94
2022-12-06T00:31:46.265Z,95587.94
2022-12-06T00:34:13.285Z,95587.94
2022-12-06T00:36:41.838Z,95590.38
2022-12-06T00:39:11.689Z,95584.72
2022-12-06T00:41:38.716Z,95587.41
2022-12-06T00:44:05.886Z,95586.88
2022-12-06T00:46:33.615Z,95585.78
2022-12-06T00:49:03.941Z,95585.25
2022-12-06T00:51:32.108Z,95585.25
2022-12-06T00:53:59.069Z,95585.53
2022-12-06T00:56:26.384Z,95583.66
2022-12-06T00:58:53.232Z,95577.47
2022-12-06T01:01:23.132Z,95585.53
2022-12-06T01:03:52.207Z,95581.25
2022-12-06T01:06:21.281Z,95573.72
2022-12-06T01:08:47.879Z,95575.59
2022-12-06T01:11:16.336Z,95572.38
2022-12-06T01:13:43.848Z,95571.84
2022-12-06T01:16:16.050Z,95566.19
2022-12-06T01:18:43.762Z,95573.72
2022-12-06T01:21:15.869Z,95571.56
2022-12-06T01:23:43.287Z,95567.56
2022-12-06T01:26:20.576Z,95568.63
2022-12-06T01:28:47.726Z,95565.41
2022-12-06T01:31:15.313Z,95564.63
2022-12-06T01:33:42.395Z,95555.22
2022-12-06T01:36:09.065Z,95559.78
2022-12-06T01:38:35.628Z,95548.75
2022-12-06T01:41:02.403Z,95551.44
2022-12-06T01:43:41.013Z,95550.66
2022-12-06T01:46:37.826Z,95548.78
2022-12-06T01:49:13.678Z,95533.22
2022-12-06T01:52:04.443Z,95534.53
2022-12-06T01:54:32.516Z,95540.75
2022-12-06T01:57:01.913Z,95543.69
2022-12-06T01:59:29.585Z,95542.34
2022-12-06T02:01:56.932Z,95550.66
2022-12-06T02:04:24.246Z,95542.09
2022-12-06T02:06:53.553Z,95546.09
2022-12-06T02:09:20.870Z,95537.50
2022-12-06T02:11:47.437Z,95540.47
2022-12-06T02:14:19.233Z,95525.44
2022-12-06T02:16:58.205Z,95525.69
2022-12-06T02:19:58.228Z,95525.16
2022-12-06T02:22:52.777Z,95525.69
2022-12-06T02:25:48.615Z,95530.53
2022-12-06T02:28:42.882Z,95523.81
2022-12-06T02:31:34.011Z,95531.06
2022-12-06T02:34:08.922Z,95527.88
2022-12-06T02:36:46.233Z,95524.88
2022-12-06T02:39:19.384Z,95525.16
2022-12-06T02:41:54.451Z,95519.78
2022-12-06T02:44:28.692Z,95518.19
2022-12-06T02:46:57.430Z,95510.41
2022-12-06T02:49:26.993Z,95508.53
2022-12-06T02:51:54.496Z,95515.22
2022-12-06T02:54:22.994Z,95509.31
2022-12-06T02:56:49.496Z,95506.13
2022-12-06T02:59:16.106Z,95508.28
2022-12-06T03:01:47.485Z,95521.13
2022-12-06T03:04:31.780Z,95497.78
2022-12-06T03:07:12.538Z,95505.84
2022-12-06T03:10:02.152Z,95512.81
2022-12-06T03:12:55.602Z,95513.88
2022-12-06T03:15:25.077Z,95517.09
2022-12-06T03:18:03.031Z,95508.22
2022-12-06T03:20:40.025Z,95501.78
2022-12-06T03:23:09.222Z,95514.09
2022-12-06T03:25:36.608Z,95503.13
2022-12-06T03:28:05.646Z,95496.94
2022-12-06T03:30:34.644Z,95498.53
2022-12-06T03:33:02.915Z,95496.66
2022-12-06T03:35:32.615Z,95495.56
2022-12-06T03:38:16.629Z,95489.94
2022-12-06T03:40:47.821Z,95498.50
2022-12-06T03:43:15.249Z,95492.84
2022-12-06T03:45:52.095Z,95496.31
2022-12-06T03:48:28.228Z,95494.97
2022-12-06T03:51:22.611Z,95491.22
2022-12-06T03:53:53.665Z,95493.91
2022-12-06T03:56:21.625Z,95492.28
2022-12-06T03:58:48.215Z,95498.97
2022-12-06T04:01:15.061Z,95496.53
2022-12-06T04:03:41.746Z,95490.66
2022-12-06T04:06:10.541Z,95491.69
2022-12-06T04:08:37.790Z,95498.16
2022-12-06T04:11:04.738Z,95493.84
2022-12-06T04:13:31.908Z,95492.78
2022-12-06T04:16:00.954Z,95491.69
2022-12-06T04:18:28.380Z,95486.91
2022-12-06T04:20:54.838Z,95486.66
2022-12-06T04:23:21.656Z,95491.75
2022-12-06T04:25:48.427Z,95487.72
2022-12-06T04:28:14.935Z,95482.09
2022-12-06T04:30:41.513Z,95483.44
2022-12-06T04:33:08.058Z,95484.78
2022-12-06T04:35:34.578Z,95485.09
2022-12-06T04:38:01.016Z,95482.94
2022-12-06T04:40:27.545Z,95480.53
2022-12-06T04:42:54.039Z,95479.22
2022-12-06T04:45:20.568Z,95482.41
2022-12-06T04:47:47.132Z,95481.09
2022-12-06T04:50:13.608Z,95480.56
2022-12-06T04:52:40.216Z,95482.72
2022-12-06T04:55:07.126Z,95482.19
2022-12-06T04:57:33.656Z,95480.03
2022-12-06T05:00:00.688Z,95479.50
2022-12-06T05:02:27.463Z,95478.16
2022-12-06T05:04:53.936Z,95471.47
2022-12-06T05:07:20.600Z,95474.41
2022-12-06T05:09:47.094Z,95468.25
2022-12-06T05:12:13.604Z,95477.09
2022-12-06T05:14:40.060Z,95469.31
2022-12-06T05:17:06.674Z,95468.00
2022-12-06T05:19:33.209Z,95472.00
2022-12-06T05:21:59.765Z,95472.28
2022-12-06T05:24:26.283Z,95472.53
2022-12-06T05:26:52.750Z,95468.53
2022-12-06T05:29:19.291Z,95465.59
2022-12-06T05:31:45.780Z,95462.91
2022-12-06T05:34:12.477Z,95469.31
2022-12-06T05:36:38.990Z,95466.38
2022-12-06T05:39:05.661Z,95466.38
2022-12-06T05:41:32.114Z,95474.16
2022-12-06T05:43:58.552Z,95467.16
2022-12-06T05:46:25.125Z,95477.91
2022-12-06T05:48:51.720Z,95476.31
2022-12-06T05:51:18.266Z,95473.88
2022-12-06T05:53:44.827Z,95475.75
2022-12-06T05:56:12.454Z,95482.19
2022-12-06T05:58:39.821Z,95479.22
2022-12-06T06:01:07.265Z,95477.88
2022-12-06T06:03:34.252Z,95475.16
2022-12-06T06:06:02.156Z,95476.78
2022-12-06T06:08:29.556Z,95471.97
2022-12-06T06:10:56.841Z,95472.22
2022-12-06T06:13:23.762Z,95470.34
2022-12-06T06:15:50.396Z,95476.25
2022-12-06T06:18:18.533Z,95474.63
2022-12-06T06:20:56.510Z,95475.41
2022-12-06T06:23:23.493Z,95477.59
2022-12-06T06:25:49.988Z,95464.19
2022-12-06T06:28:17.385Z,95478.94
2022-12-06T06:30:44.634Z,95479.75
2022-12-06T06:33:11.720Z,95474.38
2022-12-06T06:35:39.052Z,95476.00
2022-12-06T06:38:06.006Z,95479.22
2022-12-06T06:40:33.118Z,95481.88
2022-12-06T06:42:59.659Z,95481.38
2022-12-06T06:45:28.918Z,95489.69
2022-12-06T06:47:55.788Z,95492.09
2022-12-06T06:50:22.345Z,95489.72
2022-12-06T06:52:48.926Z,95492.91
2022-12-06T06:55:15.497Z,95500.16
2022-12-06T06:57:42.014Z,95498.81
2022-12-06T07:00:09.159Z,95490.25
2022-12-06T07:02:35.886Z,95489.44
2022-12-06T07:05:02.456Z,95485.44
2022-12-06T07:07:28.896Z,95486.50
2022-12-06T07:09:55.412Z,95487.84
2022-12-06T07:12:21.899Z,95482.22
2022-12-06T07:14:48.357Z,95485.16
2022-12-06T07:17:15.064Z,95481.97
2022-12-06T07:19:41.739Z,95486.00
2022-12-06T07:22:08.288Z,95487.59
2022-12-06T07:24:41.290Z,95492.41
2022-12-06T07:27:08.896Z,95486.53
2022-12-06T07:29:35.373Z,95495.91
2022-12-06T07:32:02.005Z,95488.13
2022-12-06T07:34:28.538Z,95487.59
2022-12-06T07:36:55.163Z,95490.53
2022-12-06T07:39:21.734Z,95490.84
2022-12-06T07:41:48.266Z,95484.09
2022-12-06T07:44:33.433Z,95482.50
2022-12-06T07:47:00.395Z,95480.06
2022-12-06T07:49:26.966Z,95481.16
2022-12-06T07:51:54.592Z,95485.44
2022-12-06T07:54:21.284Z,95489.19
2022-12-06T07:56:47.866Z,95486.50
2022-12-06T07:59:14.589Z,95484.09
2022-12-06T08:01:41.346Z,95476.28
2022-12-06T08:04:08.215Z,95488.09
2022-12-06T08:06:35.464Z,95489.44
2022-12-06T08:09:02.002Z,95484.56
2022-12-06T08:11:28.746Z,95476.81
2022-12-06T08:13:55.653Z,95481.63
2022-12-06T08:16:22.243Z,95478.94
2022-12-06T08:18:48.813Z,95483.50
2022-12-06T08:21:15.542Z,95481.91
2022-12-06T08:23:42.218Z,95486.72
2022-12-06T08:26:12.299Z,95486.47
2022-12-06T08:28:39.370Z,95477.06
2022-12-06T08:31:12.606Z,95488.66
2022-12-06T08:33:39.824Z,95480.88
2022-12-06T08:36:11.896Z,95481.13
2022-12-06T08:38:39.296Z,95484.09
2022-12-06T08:41:07.477Z,95486.50
2022-12-06T08:43:34.008Z,95491.88
2022-12-06T08:46:00.587Z,95488.09
2022-12-06T08:48:27.646Z,95493.72
2022-12-06T08:50:54.122Z,95486.75
2022-12-06T08:53:20.685Z,95487.00
2022-12-06T08:55:58.923Z,95490.50
2022-12-06T08:58:28.773Z,95485.38
2022-12-06T09:00:55.308Z,95488.84
2022-12-06T09:03:21.851Z,95488.78
2022-12-06T09:05:48.381Z,95475.06
2022-12-06T09:08:14.986Z,95478.78
2022-12-06T09:10:43.365Z,95479.00
2022-12-06T09:13:10.083Z,95480.31
2022-12-06T09:15:38.487Z,95481.91
2022-12-06T09:18:05.159Z,95483.50
2022-12-06T09:20:31.684Z,95488.56
2022-12-06T09:22:58.137Z,95489.06
2022-12-06T09:25:24.562Z,95488.22
2022-12-06T09:27:51.134Z,95492.22
2022-12-06T09:30:17.622Z,95493.78
2022-12-06T09:32:44.079Z,95493.75
2022-12-06T09:35:15.048Z,95493.72
2022-12-06T09:37:42.702Z,95488.59
2022-12-06T09:40:18.598Z,95486.94
2022-12-06T09:42:57.070Z,95491.50
2022-12-06T09:45:48.943Z,95487.19
2022-12-06T09:48:21.134Z,95487.41
2022-12-06T09:51:15.459Z,95476.59
2022-12-06T09:54:09.704Z,95472.00
2022-12-06T09:56:45.510Z,95460.38
2022-12-06T09:59:14.864Z,95456.84
2022-12-06T10:01:53.619Z,95462.47
2022-12-06T10:04:32.402Z,95460.28
2022-12-06T10:07:18.745Z,95463.75
2022-12-06T10:10:02.534Z,95461.28
2022-12-06T10:12:38.157Z,95446.97
2022-12-06T10:15:13.146Z,95454.75
2022-12-06T10:18:09.420Z,95445.88
2022-12-06T10:20:44.451Z,95440.72
2022-12-06T10:23:13.873Z,95434.78
2022-12-06T10:26:00.573Z,95426.69
2022-12-06T10:28:43.848Z,95425.84
2022-12-06T10:31:28.102Z,95413.97
2022-12-06T10:33:56.628Z,95408.53
2022-12-06T10:36:55.448Z,95407.69
2022-12-06T10:39:30.061Z,95408.69
2022-12-06T10:42:15.018Z,95407.03
2022-12-06T10:44:49.582Z,95401.06
2022-12-06T10:47:29.372Z,95396.97
2022-12-06T10:50:05.551Z,95398.81
2022-12-06T10:52:50.266Z,95406.31
2022-12-06T10:55:29.825Z,95401.97
2022-12-06T10:58:15.077Z,95402.69
2022-12-06T11:00:55.005Z,95396.72
2022-12-06T11:03:30.465Z,95398.56
2022-12-06T11:06:06.678Z,95385.84
2022-12-06T11:08:38.099Z,95385.75
2022-12-06T11:11:10.236Z,95376.00
2022-12-06T11:13:51.327Z,95380.53
2022-12-06T11:16:36.052Z,95380.53
2022-12-06T11:19:35.756Z,95395.59
2022-12-06T11:22:33.751Z,95388.31
2022-12-06T11:25:22.301Z,95381.53
2022-12-06T11:28:00.357Z,95384.72
2022-12-06T11:30:30.274Z,95384.16
2022-12-06T11:32:57.412Z,95370.06
2022-12-06T11:35:26.568Z,95369.00
2022-12-06T11:37:58.204Z,95374.09
2022-12-06T11:40:32.450Z,95368.41
2022-12-06T11:43:02.524Z,95366.22
2022-12-06T11:45:33.456Z,95350.81
2022-12-06T11:48:11.342Z,95352.16
2022-12-06T11:50:38.018Z,95345.66
2022-12-06T11:54:02.458Z,95350.25
2022-12-06T11:56:32.487Z,95358.56
2022-12-06T11:59:14.581Z,95359.06
2022-12-06T12:01:51.040Z,95363.38
2022-12-06T12:04:40.365Z,95356.88
2022-12-06T12:07:09.522Z,95349.00
2022-12-06T12:09:56.700Z,95351.72
2022-12-06T12:12:27.669Z,95348.19
2022-12-06T12:14:57.995Z,95351.72
2022-12-06T12:17:30.987Z,95350.59
2022-12-06T12:20:07.408Z,95352.50
2022-12-06T12:22:42.637Z,95353.28
2022-12-06T12:25:27.672Z,95352.50
2022-12-06T12:27:59.087Z,95352.50
2022-12-06T12:30:33.317Z,95356.56
2022-12-06T12:33:20.189Z,95352.88
2022-12-06T12:35:53.322Z,95358.56
2022-12-06T12:38:40.757Z,95356.97
2022-12-06T12:41:31.020Z,95355.94
2022-12-06T12:44:28.855Z,95358.13
2022-12-06T12:46:54.804Z,95341.22
2022-12-06T12:49:27.366Z,95342.09
2022-12-06T12:51:54.881Z,95337.28
2022-12-06T12:54:35.923Z,95339.25
2022-12-06T12:57:12.143Z,95337.13
2022-12-06T12:59:40.869Z,95332.03
2022-12-06T13:02:28.297Z,95338.00
2022-12-06T13:05:31.482Z,95329.41
2022-12-06T13:07:55.477Z,95328.63
2022-12-06T13:10:31.421Z,95331.63
2022-12-06T13:13:12.519Z,95325.41
2022-12-06T13:15:43.737Z,95322.22
2022-12-06T13:18:27.054Z,95316.03
2022-12-06T13:20:56.728Z,95310.34
2022-12-06T13:23:33.354Z,95310.34
2022-12-06T13:26:02.721Z,95311.13
2022-12-06T13:28:33.643Z,95294.97
2022-12-06T13:31:05.037Z,95300.34
2022-12-06T13:33:36.496Z,95304.66
2022-12-06T13:36:12.042Z,95296.56
2022-12-06T13:38:40.638Z,95293.34
2022-12-06T13:41:13.449Z,95293.34
2022-12-06T13:43:40.317Z,95287.44
2022-12-06T13:46:06.964Z,95289.66
2022-12-06T13:48:33.422Z,95290.22
2022-12-06T13:51:02.763Z,95306.97
2022-12-06T13:53:32.065Z,95303.25
2022-12-06T13:56:00.002Z,95309.22
2022-12-06T13:58:26.401Z,95308.44
2022-12-06T14:00:55.460Z,95317.63
2022-12-06T14:03:21.936Z,95309.00
2022-12-06T14:08:51.862Z,95308.00
2022-12-06T14:11:36.601Z,95305.03
2022-12-06T14:14:15.092Z,95310.41
2022-12-06T14:16:46.132Z,95298.03
2022-12-06T14:19:17.793Z,95300.44
2022-12-06T14:21:53.649Z,95289.94
2022-12-06T14:24:29.133Z,95298.03
2022-12-06T14:27:04.073Z,95291.84
2022-12-06T14:29:30.725Z,95291.56
2022-12-06T14:31:57.358Z,95292.06
2022-12-06T14:34:29.383Z,95294.75
2022-12-06T14:36:57.417Z,95299.84
2022-12-06T14:39:27.974Z,95299.06
2022-12-06T14:41:57.355Z,95299.06
2022-12-06T14:44:32.035Z,95296.34
2022-12-06T14:46:59.022Z,95295.53
2022-12-06T14:49:27.629Z,95304.44
2022-12-06T14:51:54.114Z,95293.13
2022-12-06T14:54:42.799Z,95295.63
2022-12-06T14:57:35.703Z,95297.00
2022-12-06T15:00:25.959Z,95290.00
2022-12-06T15:02:59.686Z,95286.78
2022-12-06T15:05:37.065Z,95286.00
2022-12-06T15:08:18.894Z,95288.47
2022-12-06T15:10:57.742Z,95293.88
2022-12-06T15:13:24.745Z,95299.25
2022-12-06T15:16:02.436Z,95298.75
2022-12-06T15:18:36.235Z,95305.22
2022-12-06T15:21:03.405Z,95305.22
2022-12-06T15:23:38.551Z,95306.88
2022-12-06T15:26:07.812Z,95306.09
2022-12-06T15:28:35.222Z,95309.88
2022-12-06T15:31:03.876Z,95295.66
2022-12-06T15:33:30.797Z,95299.44
2022-12-06T15:35:57.399Z,95297.88
2022-12-06T15:38:25.139Z,95302.44
2022-12-06T15:40:54.027Z,95296.53
2022-12-06T15:43:24.021Z,95298.44
2022-12-06T15:45:50.538Z,95292.50
2022-12-06T15:48:17.378Z,95299.00
2022-12-06T15:50:43.869Z,95299.31
2022-12-06T15:53:15.496Z,95300.66
2022-12-06T15:55:42.432Z,95299.06
2022-12-06T15:58:08.897Z,95298.53
2022-12-06T16:00:35.378Z,95294.53
2022-12-06T16:03:02.138Z,95303.72
2022-12-06T16:05:28.868Z,95297.00
2022-12-06T16:07:55.420Z,95296.50
2022-12-06T16:10:23.235Z,95296.00
2022-12-06T16:12:53.082Z,95290.88
2022-12-06T16:15:19.653Z,95286.59
2022-12-06T16:17:46.169Z,95279.09
2022-12-06T16:20:15.694Z,95286.94
2022-12-06T16:22:42.145Z,95285.59
2022-12-06T16:25:08.941Z,95277.81
2022-12-06T16:27:35.375Z,95280.81
2022-12-06T16:30:03.440Z,95276.81
2022-12-06T16:32:29.839Z,95279.03
2022-12-06T16:34:56.371Z,95273.59
2022-12-06T16:37:22.837Z,95273.59
2022-12-06T16:39:49.301Z,95270.88
2022-12-06T16:42:15.782Z,95275.47
2022-12-06T16:44:42.310Z,95270.88
2022-12-06T16:47:08.808Z,95272.00
2022-12-06T16:49:48.757Z,95277.38
2022-12-06T16:52:16.451Z,95272.00
2022-12-06T16:54:43.089Z,95286.53
2022-12-06T16:57:11.834Z,95287.91
2022-12-06T16:59:38.307Z,95282.81
2022-12-06T17:02:30.344Z,95291.47
2022-12-06T17:04:59.190Z,95287.44
2022-12-06T17:07:26.357Z,95297.72
2022-12-06T17:09:53.486Z,95301.47
2022-12-06T17:12:23.050Z,95303.94
2022-12-06T17:14:50.377Z,95306.09
2022-12-06T17:17:21.058Z,95300.19
2022-12-06T17:19:48.624Z,95300.75
2022-12-06T17:22:16.721Z,95297.03
2022-12-06T17:24:43.181Z,95309.50
2022-12-06T17:27:09.648Z,95302.72
2022-12-06T17:29:36.644Z,95299.53
2022-12-06T17:32:03.401Z,95309.00
2022-12-06T17:34:29.878Z,95308.44
2022-12-06T17:36:56.402Z,95316.00
2022-12-06T17:39:22.966Z,95310.13
2022-12-06T17:41:52.068Z,95305.81
2022-12-06T17:44:19.470Z,95310.69
2022-12-06T17:46:46.436Z,95300.19
2022-12-06T17:49:16.349Z,95310.13
2022-12-06T17:51:42.907Z,95308.56
2022-12-06T17:54:09.733Z,95312.31
2022-12-06T17:56:39.036Z,95305.88
2022-12-06T17:59:08.726Z,95312.03
2022-12-06T18:02:06.083Z,95319.03
2022-12-06T18:04:22.897Z,95321.19
2022-12-06T18:06:49.412Z,95328.97
2022-12-06T18:09:16.126Z,95324.41
2022-12-06T18:11:43.180Z,95321.72
2022-12-06T18:14:11.662Z,95320.91
2022-12-06T18:16:40.255Z,95327.38
2022-12-06T18:19:11.418Z,95329.78
2022-12-06T18:21:38.761Z,95326.81
2022-12-06T18:24:30.519Z,95327.09
2022-12-06T18:26:57.280Z,95334.59
2022-12-06T18:29:23.810Z,95336.47
2022-12-06T18:31:52.356Z,95327.59
2022-12-06T18:34:19.340Z,95333.00
2022-12-06T18:36:46.730Z,95335.69
2022-12-06T18:39:16.544Z,95330.59
2022-12-06T18:41:44.679Z,95327.59
2022-12-06T18:44:11.798Z,95329.00
2022-12-06T18:46:38.483Z,95329.50
2022-12-06T18:49:05.115Z,95335.41
2022-12-06T18:51:34.493Z,95327.59
2022-12-06T18:54:01.705Z,95338.88
2022-12-06T18:56:28.793Z,95328.13
2022-12-06T18:59:00.825Z,95337.00
2022-12-06T19:04:15.794Z,95329.72
2022-12-06T19:06:43.283Z,95341.00
2022-12-06T19:09:12.431Z,95339.41
2022-12-06T19:11:40.826Z,95339.13
2022-12-06T19:14:07.740Z,95337.53
2022-12-06T19:16:40.332Z,95337.53
2022-12-06T19:19:15.540Z,95342.91
2022-12-06T19:21:43.197Z,95329.47
2022-12-06T19:24:11.113Z,95326.75
2022-12-06T19:26:37.642Z,95334.84
2022-12-06T19:29:04.114Z,95333.75
2022-12-06T19:31:30.845Z,95332.94
2022-12-06T19:33:57.335Z,95335.34
2022-12-06T19:36:29.209Z,95341.53
2022-12-06T19:39:00.501Z,95346.09
2022-12-06T19:41:27.684Z,95344.53
2022-12-06T19:43:54.686Z,95342.91
2022-12-06T19:46:23.972Z,95338.59
2022-12-06T19:48:50.559Z,95338.59
2022-12-06T19:51:17.103Z,95342.09
2022-12-06T19:53:43.855Z,95336.72
2022-12-06T19:56:14.317Z,95337.81
2022-12-06T19:58:40.870Z,95335.91
2022-12-06T20:01:14.465Z,95334.03
2022-12-06T20:03:41.402Z,95338.59
2022-12-06T20:06:16.602Z,95333.22
2022-12-06T20:08:45.612Z,95338.59
2022-12-06T20:11:14.341Z,95327.84
2022-12-06T20:13:40.833Z,95336.72
2022-12-06T20:16:07.570Z,95329.72
2022-12-06T20:18:34.078Z,95330.81
2022-12-06T20:21:00.612Z,95335.41
2022-12-06T20:23:27.145Z,95324.91
2022-12-06T20:25:57.006Z,95333.28
2022-12-06T20:28:23.483Z,95320.91
2022-12-06T20:30:50.030Z,95319.03
2022-12-06T20:33:16.519Z,95321.19
2022-12-06T20:35:42.992Z,95325.75
2022-12-06T20:38:09.632Z,95314.50
2022-12-06T20:40:36.102Z,95326.84
2022-12-06T20:43:02.684Z,95326.84
2022-12-06T20:45:29.187Z,95320.66
2022-12-06T20:47:55.802Z,95320.66
2022-12-06T20:50:22.393Z,95326.31
2022-12-06T20:52:49.031Z,95318.25
2022-12-06T20:55:15.526Z,95313.97
2022-12-06T20:57:42.113Z,95320.16
2022-12-06T21:00:09.786Z,95326.59
2022-12-06T21:02:36.626Z,95329.56
2022-12-06T21:05:04.060Z,95319.63
2022-12-06T21:07:30.566Z,95328.00
2022-12-06T21:09:57.036Z,95331.19
2022-12-06T21:12:23.673Z,95328.78
2022-12-06T21:14:50.243Z,95326.38
2022-12-06T21:17:16.758Z,95330.97
2022-12-06T21:19:43.301Z,95325.59
2022-12-06T21:22:09.873Z,95327.44
2022-12-06T21:24:36.337Z,95327.44
2022-12-06T21:27:02.858Z,95323.97
2022-12-06T21:29:31.129Z,95330.13
2022-12-06T21:32:00.743Z,95330.97
2022-12-06T21:34:27.259Z,95330.69
2022-12-06T21:36:53.917Z,95321.50
2022-12-06T21:39:20.400Z,95329.28
2022-12-06T21:41:46.959Z,95331.97
2022-12-06T21:44:13.499Z,95334.94
2022-12-06T21:46:40.091Z,95336.56
2022-12-06T21:49:06.660Z,95325.81
2022-12-06T21:51:33.357Z,95336.56
2022-12-06T21:54:00.121Z,95332.81
2022-12-06T21:56:29.203Z,95338.75
2022-12-06T21:58:56.394Z,95339.81
2022-12-06T22:01:26.080Z,95348.16
2022-12-06T22:03:54.273Z,95346.28
2022-12-06T22:06:21.197Z,95341.50
2022-12-06T22:08:48.737Z,95340.38
2022-12-06T22:11:17.936Z,95344.16
2022-12-06T22:13:45.858Z,95335.00
2022-12-06T22:16:12.890Z,95346.56
2022-12-06T22:18:45.307Z,95340.09
2022-12-06T22:21:23.895Z,95336.91
2022-12-06T22:23:51.117Z,95339.31
2022-12-06T22:26:20.932Z,95341.16
2022-12-06T22:28:48.211Z,95333.38
2022-12-06T22:31:21.074Z,95346.81
2022-12-06T22:33:49.336Z,95346.81
2022-12-06T22:36:16.118Z,95345.53
2022-12-06T22:38:43.288Z,95344.69
2022-12-06T22:41:10.058Z,95347.09
2022-12-06T22:43:37.001Z,95338.19
2022-12-06T22:46:09.245Z,95345.47
2022-12-06T22:48:36.604Z,95351.66
2022-12-06T22:51:11.877Z,95340.09
2022-12-06T22:53:40.037Z,95340.91
2022-12-06T22:56:06.788Z,95340.72
2022-12-06T22:58:33.690Z,95337.69
2022-12-06T23:01:07.096Z,95346.28
2022-12-06T23:03:33.691Z,95343.06
2022-12-06T23:06:00.223Z,95339.59
2022-12-06T23:08:26.999Z,95342.28
2022-12-06T23:11:00.697Z,95333.66
2022-12-06T23:13:27.721Z,95336.91
2022-12-06T23:15:55.963Z,95347.66
2022-12-06T23:18:22.849Z,95344.97
2022-12-06T23:20:49.374Z,95336.06
2022-12-06T23:23:15.894Z,95340.34
2022-12-06T23:25:42.413Z,95336.56
2022-12-06T23:28:09.387Z,95339.25
2022-12-06T23:30:35.886Z,95332.53
2022-12-06T23:33:02.506Z,95339.31
2022-12-06T23:35:29.133Z,95337.47
2022-12-06T23:37:55.725Z,95336.63
2022-12-06T23:40:22.171Z,95340.44
2022-12-06T23:42:48.641Z,95334.78
2022-12-06T23:45:15.232Z,95337.19
2022-12-06T23:47:41.764Z,95338.56
2022-12-06T23:50:08.637Z,95338.84
2022-12-06T23:52:35.209Z,95341.03
2022-12-06T23:55:01.674Z,95340.50
2022-12-06T23:57:28.540Z,95339.97
2022-12-06T23:59:55.019Z,95338.63
